Time;durP1;ratioP1;P1;durP2;ratioP2;P2;SDS_P1;SDS_P2;PMS_P1;PMS_P2;Temp;Humidity;BMP_temperature;BMP_pressure;BME280_temperature;BME280_humidity;BME280_pressure;Samples;Min_cycle;Max_cycle;Signal;HPM_P1;HPM_P2
2021/12/15 00:04:21;;;;;;;5.75;4.68;;;16.90;71.10;;;;;;10564341;28;20027;-61
2021/12/15 00:09:22;;;;;;;8.00;5.57;;;16.80;71.00;;;;;;10582133;28;20035;-61
2021/12/15 00:14:23;;;;;;;6.78;4.95;;;16.80;71.00;;;;;;10563991;28;20023;-62
2021/12/15 00:19:26;;;;;;;9.15;6.00;;;16.90;71.10;;;;;;10563417;28;20039;-61
2021/12/15 00:24:27;;;;;;;6.63;5.70;;;16.80;71.00;;;;;;10581331;28;20039;-62
2021/12/15 00:29:28;;;;;;;7.03;5.00;;;16.80;71.00;;;;;;10563456;28;20391;-60
2021/12/15 00:34:33;;;;;;;5.63;4.75;;;16.80;71.00;;;;;;10563043;28;20063;-61
2021/12/15 00:39:34;;;;;;;6.68;5.20;;;16.80;71.00;;;;;;10563393;28;20047;-61
2021/12/15 00:44:34;;;;;;;7.65;5.03;;;16.80;71.00;;;;;;10562561;28;20053;-62
2021/12/15 00:49:36;;;;;;;5.65;4.60;;;16.80;71.00;;;;;;10545140;28;20361;-61
2021/12/15 00:54:38;;;;;;;5.22;4.53;;;16.80;71.00;;;;;;10558139;28;20054;-61
2021/12/15 00:59:39;;;;;;;6.75;5.07;;;16.70;70.90;;;;;;10562182;28;20035;-62
2021/12/15 01:04:39;;;;;;;6.72;5.10;;;16.70;70.90;;;;;;10561442;28;20106;-61
2021/12/15 01:09:50;;;;;;;7.20;5.63;;;16.70;70.90;;;;;;10579723;28;20050;-61
2021/12/15 01:20:29;;;;;;;5.88;4.93;;;16.70;70.90;;;;;;10563106;28;20039;-62
2021/12/15 01:25:39;;;;;;;7.22;5.25;;;16.70;70.90;;;;;;10562651;28;20053;-61
2021/12/15 01:30:44;;;;;;;5.95;5.07;;;16.70;70.90;;;;;;10579988;28;20046;-61
2021/12/15 01:35:48;;;;;;;5.78;4.38;;;16.70;70.90;;;;;;10561458;28;20075;-61
2021/12/15 01:40:49;;;;;;;6.45;5.25;;;16.70;70.90;;;;;;10561321;28;20031;-61
2021/12/15 01:51:17;;;;;;;6.13;5.13;;;16.60;70.80;;;;;;10564026;28;20044;-61
2021/12/15 01:56:18;;;;;;;6.00;4.85;;;16.60;70.80;;;;;;10560938;28;20549;-61
2021/12/15 02:01:19;;;;;;;6.50;5.13;;;16.60;70.90;;;;;;10578191;28;20054;-61
2021/12/15 02:06:20;;;;;;;6.78;5.15;;;16.60;70.90;;;;;;10560832;28;20449;-61
2021/12/15 02:11:21;;;;;;;6.10;4.85;;;16.60;71.20;;;;;;10579070;28;20040;-60
2021/12/15 02:16:21;;;;;;;5.93;5.20;;;16.60;70.90;;;;;;10585710;28;20050;-62
2021/12/15 02:21:25;;;;;;;7.68;4.85;;;16.60;70.90;;;;;;10586752;28;20424;-61
2021/12/15 02:26:36;;;;;;;6.65;5.63;;;16.50;70.80;;;;;;10568612;28;20078;-62
2021/12/15 02:37:18;;;;;;;6.40;5.07;;;16.50;70.80;;;;;;10570045;28;20061;-62
2021/12/15 02:42:26;;;;;;;6.18;4.68;;;16.50;70.80;;;;;;10570500;28;20024;-61
2021/12/15 02:47:31;;;;;;;6.13;4.50;;;16.50;70.80;;;;;;10567931;28;20106;-61
2021/12/15 02:52:33;;;;;;;6.07;4.82;;;16.50;70.90;;;;;;10585254;28;20050;-60
2021/12/15 02:57:35;;;;;;;6.68;5.05;;;16.50;70.80;;;;;;10566838;28;20042;-61
2021/12/15 03:18:28;;;;;;;5.93;4.53;;;16.50;70.90;;;;;;10568950;28;20039;-61
2021/12/15 03:23:51;;;;;;;6.50;5.35;;;16.50;70.90;;;;;;10565594;28;20091;-61
2021/12/15 03:39:44;;;;;;;5.10;3.95;;;16.40;70.80;;;;;;10568670;28;20064;-62
2021/12/15 03:44:46;;;;;;;6.55;4.32;;;16.50;70.90;;;;;;10583561;28;20020;-61
2021/12/15 03:49:47;;;;;;;5.85;4.65;;;16.50;70.80;;;;;;10547824;28;20167;-61
2021/12/15 03:54:48;;;;;;;6.32;4.75;;;16.50;70.90;;;;;;10583088;28;20065;-62
2021/12/15 03:59:49;;;;;;;5.30;4.30;;;16.40;70.80;;;;;;10541601;28;20061;-61
2021/12/15 04:04:52;;;;;;;5.35;4.35;;;16.50;70.80;;;;;;10560045;28;20026;-62
2021/12/15 04:09:53;;;;;;;5.53;4.53;;;16.40;70.80;;;;;;10555917;28;20438;-62
2021/12/15 04:14:56;;;;;;;5.40;4.47;;;16.40;70.80;;;;;;10582084;28;20094;-60
2021/12/15 04:20:07;;;;;;;5.07;4.22;;;16.40;70.80;;;;;;10563947;28;20028;-62
2021/12/15 04:25:23;;;;;;;5.15;4.40;;;16.40;70.80;;;;;;10560933;28;20400;-61
2021/12/15 04:30:26;;;;;;;7.20;4.90;;;16.40;70.80;;;;;;10540745;28;20031;-62
2021/12/15 04:35:27;;;;;;;5.20;4.18;;;16.40;70.80;;;;;;10562667;28;20079;-61
2021/12/15 04:40:28;;;;;;;6.20;5.18;;;16.40;70.80;;;;;;10562915;28;20026;-62
2021/12/15 04:45:30;;;;;;;5.93;4.53;;;16.40;70.80;;;;;;10563039;28;20126;-62
2021/12/15 04:50:32;;;;;;;6.55;4.50;;;16.40;70.80;;;;;;10562403;28;20055;-62
2021/12/15 04:55:36;;;;;;;5.97;4.80;;;16.30;70.70;;;;;;10562669;28;20103;-61
2021/12/15 05:00:47;;;;;;;5.80;4.70;;;16.30;70.70;;;;;;10562027;28;20036;-61
2021/12/15 05:05:48;;;;;;;5.57;4.15;;;16.30;70.70;;;;;;10567061;28;20035;-61
2021/12/15 05:10:50;;;;;;;5.07;4.47;;;16.30;70.70;;;;;;10561859;28;20035;-62
2021/12/15 05:15:51;;;;;;;6.05;4.40;;;16.30;70.80;;;;;;10566525;28;20016;-62
2021/12/15 05:20:53;;;;;;;6.43;4.75;;;16.30;70.70;;;;;;10550631;28;20038;-62
2021/12/15 05:25:54;;;;;;;7.43;5.10;;;16.30;70.70;;;;;;10544942;28;20045;-61
2021/12/15 05:30:57;;;;;;;5.40;4.28;;;16.30;70.70;;;;;;10538967;28;20042;-62
2021/12/15 05:35:58;;;;;;;6.03;4.85;;;16.30;70.70;;;;;;10538009;28;20032;-62
2021/12/15 05:40:59;;;;;;;6.03;4.40;;;16.30;70.80;;;;;;10544726;28;20035;-62
2021/12/15 05:46:00;;;;;;;6.57;4.90;;;16.50;70.10;;;;;;10557691;28;20054;-62
2021/12/15 05:51:01;;;;;;;5.55;4.55;;;16.90;68.90;;;;;;10583071;28;20131;-61
2021/12/15 05:56:02;;;;;;;5.22;4.07;;;17.20;67.90;;;;;;10568674;28;20419;-62
2021/12/15 06:01:04;;;;;;;6.38;4.63;;;17.40;67.30;;;;;;10566092;28;20028;-58
2021/12/15 06:06:05;;;;;;;9.45;4.45;;;17.60;67.30;;;;;;10586965;28;20035;-63
2021/12/15 06:11:06;;;;;;;7.57;4.10;;;17.70;67.90;;;;;;10567234;28;20032;-64
2021/12/15 06:16:07;;;;;;;10.48;4.70;;;17.90;68.00;;;;;;10580759;28;20472;-60
2021/12/15 06:21:10;;;;;;;4.80;3.60;;;18.20;68.00;;;;;;10568028;28;20026;-70
2021/12/15 06:26:11;;;;;;;7.47;3.90;;;18.40;67.20;;;;;;10562751;28;20016;-61
2021/12/15 06:31:14;;;;;;;11.32;4.22;;;18.50;66.50;;;;;;10549099;28;20035;-64
2021/12/15 06:36:20;;;;;;;11.38;3.53;;;18.80;66.50;;;;;;10584378;28;20039;-61
2021/12/15 06:41:22;;;;;;;6.63;4.20;;;18.90;66.40;;;;;;10568065;28;20028;-63
2021/12/15 07:02:26;;;;;;;12.00;4.53;;;18.70;66.80;;;;;;10584129;28;20035;-64
2021/12/15 07:07:26;;;;;;;12.40;4.85;;;18.90;66.80;;;;;;10564259;28;20100;-61
2021/12/15 07:12:27;;;;;;;18.98;4.43;;;18.90;66.50;;;;;;10563451;28;20080;-63
2021/12/15 07:17:29;;;;;;;11.55;4.10;;;19.00;66.30;;;;;;10563306;28;20032;-63
2021/12/15 07:27:41;;;;;;;11.60;4.70;;;19.10;65.70;;;;;;10566408;28;20036;-62
2021/12/15 07:32:43;;;;;;;10.15;4.15;;;19.20;65.50;;;;;;10564220;28;20399;-61
2021/12/15 07:37:44;;;;;;;11.27;5.03;;;19.20;65.40;;;;;;10574100;28;20031;-61
2021/12/15 07:43:06;;;;;;;18.35;4.75;;;19.10;65.40;;;;;;10564869;28;20032;-63
2021/12/15 07:48:09;;;;;;;12.05;4.75;;;19.00;66.20;;;;;;10567870;28;20480;-60
2021/12/15 07:53:10;;;;;;;10.93;4.55;;;18.90;66.40;;;;;;10564466;28;20149;-61
2021/12/15 07:58:11;;;;;;;10.20;4.82;;;18.90;66.50;;;;;;10564317;28;20055;-61
2021/12/15 08:03:13;;;;;;;10.45;4.30;;;18.80;66.50;;;;;;10554737;28;20077;-60
2021/12/15 08:08:14;;;;;;;13.05;4.65;;;18.80;66.80;;;;;;10560121;28;20426;-58
2021/12/15 08:13:16;;;;;;;10.13;4.53;;;18.80;66.70;;;;;;10559583;28;20066;-61
2021/12/15 08:18:17;;;;;;;9.18;3.92;;;18.80;66.80;;;;;;10563290;28;20027;-60
2021/12/15 08:23:18;;;;;;;10.55;4.22;;;18.90;66.60;;;;;;10581545;28;20036;-62
2021/12/15 08:28:19;;;;;;;9.30;5.18;;;18.70;67.20;;;;;;10563168;28;20032;-61
2021/12/15 08:33:29;;;;;;;11.07;5.15;;;18.60;66.90;;;;;;10489540;28;20411;-61
2021/12/15 08:38:33;;;;;;;10.57;4.70;;;18.60;66.70;;;;;;10446709;28;20044;-60
2021/12/15 08:43:34;;;;;;;14.45;4.68;;;18.60;66.80;;;;;;10462932;28;20076;-60
2021/12/15 08:48:37;;;;;;;12.45;5.25;;;18.60;66.60;;;;;;10447630;28;20091;-62
2021/12/15 08:53:41;;;;;;;8.95;4.85;;;18.60;66.90;;;;;;10446659;28;20077;-62
2021/12/15 08:58:42;;;;;;;15.05;4.70;;;18.70;66.90;;;;;;10413765;28;20046;-60
2021/12/15 09:03:43;;;;;;;13.13;5.32;;;18.70;66.90;;;;;;10418502;28;20112;-60
2021/12/15 09:08:45;;;;;;;11.65;6.00;;;18.60;66.80;;;;;;10404943;28;20029;-60
2021/12/15 09:13:50;;;;;;;9.48;5.60;;;18.50;67.00;;;;;;10404972;28;20033;-62
2021/12/15 09:18:53;;;;;;;9.20;4.95;;;18.50;67.00;;;;;;10405293;28;20030;-61
2021/12/15 09:23:56;;;;;;;12.50;5.50;;;18.50;67.00;;;;;;10401646;28;20038;-59
2021/12/15 09:28:57;;;;;;;11.20;5.82;;;18.60;66.80;;;;;;10401416;28;20042;-62
2021/12/15 09:33:59;;;;;;;9.40;6.07;;;18.60;66.80;;;;;;10400978;28;20033;-60
2021/12/15 09:39:14;;;;;;;10.55;5.38;;;18.60;66.60;;;;;;10404623;28;20041;-59
2021/12/15 09:44:19;;;;;;;8.95;5.43;;;18.60;66.60;;;;;;10380462;28;20034;-59
2021/12/15 10:10:49;;;;;;;7.30;5.68;;;18.50;66.50;;;;;;10376278;28;20042;-61
2021/12/15 10:21:28;;;;;;;9.70;5.63;;;18.60;66.30;;;;;;10375936;28;20049;-61
2021/12/15 10:26:29;;;;;;;8.77;5.60;;;18.60;66.20;;;;;;10375262;28;20514;-61
2021/12/15 10:31:30;;;;;;;6.90;5.22;;;18.60;66.10;;;;;;10375358;28;20050;-61
2021/12/15 10:36:33;;;;;;;8.32;5.97;;;18.60;66.20;;;;;;10375158;28;20396;-62
2021/12/15 10:41:41;;;;;;;7.43;5.45;;;18.60;66.20;;;;;;10375051;28;20432;-60
2021/12/15 10:46:50;;;;;;;9.15;5.25;;;18.60;66.20;;;;;;10374366;28;20038;-61
2021/12/15 10:52:06;;;;;;;7.88;5.47;;;18.60;66.00;;;;;;10374336;28;20073;-60
2021/12/15 10:57:34;;;;;;;7.15;4.90;;;18.50;66.20;;;;;;10372544;28;20037;-60
2021/12/15 11:02:35;;;;;;;7.63;5.57;;;18.50;66.50;;;;;;10379164;28;20387;-61
2021/12/15 11:07:47;;;;;;;6.00;5.03;;;18.50;66.20;;;;;;10372623;28;20553;-62
2021/12/15 11:12:57;;;;;;;7.43;6.32;;;18.50;66.20;;;;;;10373257;28;20461;-59
2021/12/15 11:18:24;;;;;;;7.28;5.78;;;18.60;66.10;;;;;;10373507;28;20117;-60
2021/12/15 11:23:29;;;;;;;7.53;5.55;;;18.50;66.30;;;;;;10372195;28;20044;-59
2021/12/15 11:28:39;;;;;;;7.43;5.43;;;18.80;65.70;;;;;;10372255;28;20061;-59
2021/12/15 11:34:01;;;;;;;10.95;6.03;;;18.80;66.00;;;;;;10372986;28;20111;-59
2021/12/15 11:39:06;;;;;;;10.63;6.35;;;18.70;67.00;;;;;;10372530;28;20038;-59
2021/12/15 11:44:12;;;;;;;11.88;6.68;;;18.70;67.60;;;;;;10372304;28;20431;-58
2021/12/15 11:49:21;;;;;;;13.35;7.18;;;18.60;67.60;;;;;;10372365;28;20403;-59
2021/12/15 11:54:28;;;;;;;10.93;6.37;;;18.70;68.20;;;;;;10372014;28;20088;-61
2021/12/15 11:59:32;;;;;;;9.80;6.70;;;18.60;67.90;;;;;;10374853;28;20038;-61
2021/12/15 12:04:54;;;;;;;11.52;6.90;;;18.60;67.80;;;;;;10370049;28;20034;-60
2021/12/15 12:10:17;;;;;;;15.27;7.00;;;18.50;67.50;;;;;;10370619;28;20037;-59
2021/12/15 12:15:27;;;;;;;16.33;7.25;;;18.50;68.00;;;;;;10371668;28;20069;-60
2021/12/15 12:20:43;;;;;;;16.75;7.38;;;18.50;67.90;;;;;;10371800;28;20022;-59
2021/12/15 12:25:48;;;;;;;9.70;7.07;;;18.40;67.90;;;;;;10370837;28;20121;-60
2021/12/15 12:31:05;;;;;;;14.23;6.68;;;18.50;68.00;;;;;;10369187;28;20046;-60
2021/12/15 12:36:12;;;;;;;19.08;7.28;;;18.40;68.30;;;;;;10368357;28;20030;-61
2021/12/15 12:41:19;;;;;;;19.17;6.93;;;18.40;68.30;;;;;;10367507;28;20041;-60
2021/12/15 12:46:41;;;;;;;23.27;8.52;;;18.40;68.50;;;;;;10366439;28;20558;-60
2021/12/15 13:03:04;;;;;;;17.80;6.80;;;18.50;68.30;;;;;;10372787;28;20038;-61
2021/12/15 13:08:28;;;;;;;13.75;7.65;;;18.50;68.00;;;;;;10370434;28;20041;-59
2021/12/15 13:13:51;;;;;;;16.58;6.90;;;18.40;68.10;;;;;;10370002;28;20476;-61
2021/12/15 13:19:01;;;;;;;14.57;7.03;;;18.40;68.30;;;;;;10374679;28;20120;-61
2021/12/15 13:24:07;;;;;;;;;;;18.30;68.30;;;;;;10374211;28;20153;-60
2021/12/15 13:29:28;;;;;;;13.63;6.80;;;18.40;68.00;;;;;;10370109;28;19951;-60
2021/12/15 13:34:44;;;;;;;12.32;7.57;;;18.40;67.80;;;;;;10377035;28;20049;-60
2021/12/15 13:39:49;;;;;;;14.27;6.72;;;18.40;67.70;;;;;;10376892;28;20100;-60
2021/12/15 13:44:50;;;;;;;18.42;7.28;;;18.50;67.50;;;;;;10377048;28;20509;-61
2021/12/15 13:49:53;;;;;;;14.48;6.47;;;18.50;67.60;;;;;;10375509;28;20049;-61
2021/12/15 13:55:15;;;;;;;10.82;5.80;;;18.60;67.40;;;;;;10373402;28;20184;-61
2021/12/15 14:00:24;;;;;;;9.10;6.50;;;18.50;67.40;;;;;;10378888;28;20606;-62
2021/12/15 14:05:36;;;;;;;8.55;5.40;;;18.50;67.50;;;;;;10375577;28;20044;-61
2021/12/15 14:10:38;;;;;;;9.38;5.82;;;18.60;67.40;;;;;;10373411;28;20050;-60
2021/12/15 14:15:38;;;;;;;8.13;5.60;;;18.50;67.40;;;;;;10375471;28;20034;-60
2021/12/15 14:21:06;;;;;;;8.43;5.18;;;18.50;67.30;;;;;;10376045;28;20042;-60
2021/12/15 14:26:12;;;;;;;8.88;5.32;;;18.50;67.30;;;;;;10375352;28;20487;-60
2021/12/15 14:31:24;;;;;;;10.15;5.78;;;18.50;67.40;;;;;;10374581;28;20053;-60
2021/12/15 14:36:35;;;;;;;9.68;5.30;;;18.60;67.30;;;;;;10374949;28;20503;-61
2021/12/15 14:41:42;;;;;;;9.35;4.80;;;18.50;67.20;;;;;;10374848;28;20041;-61
2021/12/15 14:46:56;;;;;;;6.00;4.47;;;18.50;67.40;;;;;;10375096;28;20037;-60
2021/12/15 14:52:05;;;;;;;7.68;4.40;;;18.60;67.30;;;;;;10373398;28;20443;-60
2021/12/15 14:57:14;;;;;;;6.63;4.78;;;18.50;67.30;;;;;;10374259;28;20069;-61
2021/12/15 15:02:31;;;;;;;7.73;4.47;;;18.50;67.50;;;;;;10374753;28;20045;-61
2021/12/15 15:07:37;;;;;;;7.43;4.18;;;18.50;67.20;;;;;;10374095;28;20346;-60
2021/12/15 15:12:40;;;;;;;6.50;4.07;;;18.50;67.30;;;;;;10372846;28;20038;-60
2021/12/15 15:17:54;;;;;;;7.80;4.55;;;18.50;67.40;;;;;;10373112;28;20061;-61
2021/12/15 15:23:06;;;;;;;6.88;4.20;;;18.60;67.30;;;;;;10373555;28;20124;-60
2021/12/15 15:28:11;;;;;;;5.97;4.30;;;18.50;67.30;;;;;;10373288;28;20030;-60
2021/12/15 15:33:22;;;;;;;6.13;3.83;;;18.50;67.30;;;;;;10372839;28;20447;-60
2021/12/15 15:38:29;;;;;;;6.50;4.45;;;18.50;67.10;;;;;;10371100;28;20057;-60
2021/12/15 15:43:42;;;;;;;4.45;3.58;;;18.50;67.20;;;;;;10371304;28;20121;-60
2021/12/15 15:48:44;;;;;;;8.32;3.95;;;18.50;67.30;;;;;;10372182;28;20435;-59
2021/12/15 15:53:53;;;;;;;7.80;3.90;;;18.50;67.10;;;;;;10371026;28;20470;-61
2021/12/15 15:59:12;;;;;;;7.33;3.77;;;18.50;67.30;;;;;;10372647;28;20068;-61
2021/12/15 16:04:17;;;;;;;5.72;4.05;;;18.50;67.10;;;;;;10377080;28;20140;-61
2021/12/15 16:09:24;;;;;;;5.35;4.18;;;18.50;67.10;;;;;;10370508;28;20052;-60
2021/12/15 16:14:27;;;;;;;5.63;4.00;;;18.50;67.10;;;;;;10371709;28;20040;-60
2021/12/15 16:19:37;;;;;;;5.95;3.92;;;18.50;67.00;;;;;;10371285;28;20038;-62
2021/12/15 16:24:39;;;;;;;5.05;3.65;;;18.50;67.10;;;;;;10369552;28;20092;-60
2021/12/15 16:29:40;;;;;;;5.30;3.38;;;18.50;66.90;;;;;;10370974;28;20061;-60
2021/12/15 16:34:46;;;;;;;3.97;3.05;;;18.60;67.50;;;;;;10372654;28;20026;-62
2021/12/15 16:39:50;;;;;;;5.22;3.58;;;18.50;67.30;;;;;;10372168;28;20045;-61
2021/12/15 16:44:59;;;;;;;8.43;3.97;;;18.50;67.30;;;;;;10369553;28;20053;-61
2021/12/15 16:50:04;;;;;;;7.32;3.50;;;18.60;67.00;;;;;;10371505;28;20484;-62
2021/12/15 16:55:18;;;;;;;9.05;4.75;;;18.70;67.00;;;;;;10379665;28;20037;-62
2021/12/15 17:00:25;;;;;;;10.07;5.38;;;19.10;69.80;;;;;;10371268;28;20038;-61
2021/12/15 17:05:31;;;;;;;10.65;5.32;;;19.10;66.70;;;;;;10376121;28;20056;-61
2021/12/15 17:10:44;;;;;;;8.63;5.30;;;19.10;66.30;;;;;;10376332;28;20030;-63
2021/12/15 17:15:59;;;;;;;12.77;6.63;;;19.10;69.20;;;;;;10377819;28;20038;-62
2021/12/15 17:21:11;;;;;;;7.13;4.40;;;19.40;68.20;;;;;;10366087;28;20029;-63
2021/12/15 17:26:30;;;;;;;7.97;5.82;;;20.10;65.70;;;;;;10366362;28;20388;-63
2021/12/15 17:31:38;;;;;;;8.27;5.88;;;19.70;66.90;;;;;;10375123;28;20060;-63
2021/12/15 17:36:43;;;;;;;9.40;5.30;;;19.40;67.00;;;;;;10378978;28;20042;-61
2021/12/15 17:41:55;;;;;;;13.45;5.43;;;19.30;67.60;;;;;;10366308;28;20734;-60
2021/12/15 17:47:25;;;;;;;7.38;4.60;;;19.20;67.60;;;;;;10376040;28;20065;-60
2021/12/15 17:52:34;;;;;;;12.00;5.20;;;19.00;68.40;;;;;;10377434;28;20088;-60
2021/12/15 17:58:01;;;;;;;12.52;5.07;;;18.80;69.20;;;;;;10375331;28;20049;-61
2021/12/15 18:03:17;;;;;;;13.25;5.13;;;18.60;69.70;;;;;;10374515;28;20029;-59
2021/12/15 18:08:18;;;;;;;11.65;5.68;;;18.50;70.50;;;;;;10377489;28;20049;-60
2021/12/15 18:13:25;;;;;;;14.80;5.25;;;18.40;70.10;;;;;;10363635;28;20061;-62
2021/12/15 18:18:27;;;;;;;7.32;5.53;;;18.40;70.80;;;;;;10375945;28;20448;-61
2021/12/15 18:23:30;;;;;;;9.93;5.95;;;18.20;70.10;;;;;;10376411;28;20022;-60
2021/12/15 18:28:31;;;;;;;9.15;5.00;;;18.20;70.40;;;;;;10376334;28;20037;-62
2021/12/15 18:33:32;;;;;;;11.60;5.85;;;18.10;70.00;;;;;;10376153;28;20045;-60
2021/12/15 18:38:35;;;;;;;14.52;5.80;;;18.10;69.90;;;;;;10375600;28;20034;-62
2021/12/15 18:43:39;;;;;;;10.63;6.47;;;18.20;69.20;;;;;;10376103;28;20053;-63
2021/12/15 18:48:40;;;;;;;11.23;6.28;;;18.40;68.50;;;;;;10376534;28;20041;-61
2021/12/15 18:53:41;;;;;;;13.20;6.50;;;18.50;68.50;;;;;;10366571;28;20045;-62
2021/12/15 18:58:44;;;;;;;12.05;6.35;;;18.60;68.20;;;;;;10372942;28;20528;-63
2021/12/15 19:03:45;;;;;;;15.38;6.00;;;18.50;68.30;;;;;;10370308;28;20076;-62
2021/12/15 19:08:47;;;;;;;13.20;6.22;;;18.50;68.60;;;;;;10371566;28;20495;-62
2021/12/15 19:13:50;;;;;;;13.73;5.95;;;18.40;68.90;;;;;;10368304;28;20042;-62
2021/12/15 19:18:51;;;;;;;9.95;6.00;;;18.40;69.20;;;;;;10371124;28;20041;-62
2021/12/15 19:23:53;;;;;;;10.35;5.93;;;18.40;69.80;;;;;;10366183;28;20038;-62
2021/12/15 19:28:57;;;;;;;13.18;5.55;;;18.40;69.20;;;;;;10367668;28;20368;-59
2021/12/15 19:33:59;;;;;;;9.95;5.47;;;18.40;68.90;;;;;;10374643;28;20365;-61
2021/12/15 19:39:06;;;;;;;7.15;5.45;;;18.40;69.00;;;;;;10360346;28;20060;-58
2021/12/15 19:44:15;;;;;;;13.00;5.68;;;18.40;68.80;;;;;;10361230;28;20073;-60
2021/12/15 19:49:17;;;;;;;9.00;4.88;;;18.50;68.60;;;;;;10360964;28;20112;-61
2021/12/15 19:54:19;;;;;;;7.93;4.90;;;18.50;68.70;;;;;;10373390;28;20042;-60
2021/12/15 19:59:21;;;;;;;10.05;4.70;;;18.40;68.90;;;;;;10374786;28;20038;-60
2021/12/15 20:04:26;;;;;;;9.27;5.35;;;18.30;69.10;;;;;;10367195;28;20030;-61
2021/12/15 20:09:31;;;;;;;8.02;4.82;;;18.20;69.40;;;;;;10369994;28;20109;-61
2021/12/15 20:14:32;;;;;;;9.30;4.05;;;18.20;69.50;;;;;;10367359;28;20038;-62
2021/12/15 20:19:33;;;;;;;8.35;4.80;;;18.10;69.60;;;;;;10367177;28;20030;-61
2021/12/15 20:24:43;;;;;;;7.97;4.25;;;18.10;69.80;;;;;;10368168;28;20041;-61
2021/12/15 20:29:44;;;;;;;5.05;4.50;;;18.00;69.90;;;;;;10368308;28;20050;-61
2021/12/15 20:34:49;;;;;;;6.38;4.53;;;17.90;69.90;;;;;;10370305;28;20116;-60
2021/12/15 20:39:50;;;;;;;7.68;3.95;;;17.90;69.90;;;;;;10370076;28;20034;-60
2021/12/15 20:44:51;;;;;;;6.15;4.50;;;17.80;70.00;;;;;;10370118;28;20105;-59
2021/12/15 20:49:52;;;;;;;7.13;3.88;;;17.80;70.20;;;;;;10370245;28;20476;-59
2021/12/15 20:54:52;;;;;;;7.82;4.40;;;17.80;70.10;;;;;;10370672;28;20030;-60
2021/12/15 20:59:53;;;;;;;7.20;3.75;;;17.70;70.10;;;;;;10375682;28;20376;-60
2021/12/15 21:04:55;;;;;;;10.43;3.85;;;17.70;70.20;;;;;;10376455;28;20384;-60
2021/12/15 21:09:56;;;;;;;6.97;3.30;;;17.70;70.20;;;;;;10370701;28;20125;-61
2021/12/15 21:14:58;;;;;;;6.65;4.00;;;17.60;70.30;;;;;;10369865;28;20084;-60
2021/12/15 21:20:02;;;;;;;5.28;3.35;;;17.60;70.30;;;;;;10370113;28;20056;-61
2021/12/15 21:25:06;;;;;;;5.50;3.70;;;17.50;70.30;;;;;;10368541;28;20499;-60
2021/12/15 21:30:17;;;;;;;4.97;3.83;;;17.50;70.30;;;;;;10369494;28;20065;-61
2021/12/15 21:35:22;;;;;;;7.43;4.18;;;17.50;70.40;;;;;;10369716;28;20034;-60
2021/12/15 21:40:26;;;;;;;7.05;4.82;;;17.50;70.40;;;;;;10374610;28;20121;-59
2021/12/15 21:45:31;;;;;;;5.63;3.20;;;17.40;70.40;;;;;;10375812;28;20068;-60
2021/12/15 21:50:34;;;;;;;5.65;3.90;;;17.40;70.40;;;;;;10375497;28;20037;-61
2021/12/15 21:55:38;;;;;;;5.03;3.35;;;17.40;70.40;;;;;;10376340;28;20037;-60
2021/12/15 22:00:45;;;;;;;4.63;3.40;;;17.30;70.40;;;;;;10387886;28;20030;-60
2021/12/15 22:05:49;;;;;;;6.97;4.07;;;17.30;70.40;;;;;;10375403;28;20042;-60
2021/12/15 22:10:50;;;;;;;4.72;3.50;;;17.30;70.40;;;;;;10376161;28;20439;-60
2021/12/15 22:15:56;;;;;;;6.25;4.25;;;17.30;70.40;;;;;;10375963;28;20038;-60
2021/12/15 22:20:59;;;;;;;5.28;3.67;;;17.30;70.40;;;;;;10375939;28;20034;-59
2021/12/15 22:26:00;;;;;;;3.97;3.33;;;17.30;70.40;;;;;;10374418;28;20091;-60
2021/12/15 22:31:02;;;;;;;6.13;3.80;;;17.20;70.40;;;;;;10375364;28;20049;-60
2021/12/15 22:36:05;;;;;;;5.90;3.78;;;17.20;70.40;;;;;;10375281;28;20388;-60
2021/12/15 22:41:12;;;;;;;5.70;4.60;;;17.20;70.40;;;;;;10375348;28;20041;-59
2021/12/15 22:46:18;;;;;;;5.13;3.40;;;17.20;70.40;;;;;;10375011;28;20037;-59
2021/12/15 22:51:19;;;;;;;4.70;3.60;;;17.10;70.30;;;;;;10374351;28;20034;-59
2021/12/15 22:56:19;;;;;;;6.10;3.50;;;17.10;70.40;;;;;;10374284;28;20464;-58
2021/12/15 23:01:27;;;;;;;4.75;3.40;;;17.10;70.40;;;;;;10386697;28;20045;-59
2021/12/15 23:06:32;;;;;;;3.42;2.95;;;17.10;70.40;;;;;;10374003;28;20038;-59
2021/12/15 23:11:52;;;;;;;4.72;3.55;;;17.10;70.40;;;;;;10373831;28;20112;-59
2021/12/15 23:16:53;;;;;;;4.95;3.80;;;17.10;70.40;;;;;;10369582;28;20038;-59
2021/12/15 23:21:55;;;;;;;5.35;3.55;;;17.00;70.40;;;;;;10373819;28;20060;-60
2021/12/15 23:26:56;;;;;;;5.53;4.30;;;17.00;70.40;;;;;;10373197;28;20046;-60
2021/12/15 23:31:57;;;;;;;7.55;3.90;;;17.00;70.40;;;;;;10372968;28;20069;-60
2021/12/15 23:36:58;;;;;;;4.22;2.97;;;17.00;70.30;;;;;;10372926;28;20384;-62
